createdAt,value
2022-12-17T00:01:23.086Z,12.83
2022-12-17T00:06:44.067Z,12.91
2022-12-17T00:12:04.873Z,12.81
2022-12-17T00:17:25.364Z,13.02
2022-12-17T00:22:45.835Z,13.00
2022-12-17T00:28:06.681Z,12.83
2022-12-17T00:33:27.471Z,12.64
2022-12-17T00:38:48.582Z,12.78
2022-12-17T00:44:09.043Z,12.81
2022-12-17T00:49:30.373Z,12.84
2022-12-17T00:54:51.078Z,12.63
2022-12-17T01:00:12.496Z,12.78
2022-12-17T01:05:33.653Z,12.82
2022-12-17T01:10:54.747Z,12.95
2022-12-17T01:16:22.754Z,12.62
2022-12-17T01:21:57.131Z,12.86
2022-12-17T01:27:17.882Z,12.72
2022-12-17T01:32:38.840Z,12.75
2022-12-17T01:37:59.704Z,12.82
2022-12-17T01:43:20.726Z,12.69
2022-12-17T01:48:47.098Z,12.59
2022-12-17T01:54:10.470Z,12.75
2022-12-17T01:59:32.582Z,12.77
2022-12-17T02:04:53.552Z,12.68
2022-12-17T02:10:42.991Z,12.68
2022-12-17T02:16:24.565Z,12.60
2022-12-17T02:21:48.543Z,12.44
2022-12-17T02:27:15.868Z,12.66
2022-12-17T02:32:38.478Z,12.39
2022-12-17T02:38:08.641Z,12.39
2022-12-17T02:43:30.645Z,12.25
2022-12-17T02:48:51.476Z,12.23
2022-12-17T02:54:13.306Z,12.49
2022-12-17T02:59:34.397Z,12.33
2022-12-17T03:04:55.076Z,12.36
2022-12-17T03:10:15.926Z,12.02
2022-12-17T03:15:36.641Z,12.18
2022-12-17T03:20:57.430Z,12.11
2022-12-17T03:26:20.393Z,12.36
2022-12-17T03:31:42.052Z,12.33
2022-12-17T03:37:03.169Z,12.18
2022-12-17T03:42:24.006Z,12.25
2022-12-17T03:47:44.984Z,12.13
2022-12-17T03:53:05.991Z,12.16
2022-12-17T03:58:26.848Z,12.14
2022-12-17T04:03:47.683Z,12.17
2022-12-17T04:09:08.705Z,12.24
2022-12-17T04:14:30.268Z,12.11
2022-12-17T04:19:58.711Z,12.24
2022-12-17T04:25:19.280Z,11.96
2022-12-17T04:30:40.073Z,12.11
2022-12-17T04:36:00.985Z,12.15
2022-12-17T04:41:21.749Z,12.02
2022-12-17T04:46:42.828Z,12.15
2022-12-17T04:52:03.402Z,12.09
2022-12-17T04:57:24.448Z,12.18
2022-12-17T05:02:45.121Z,12.10
2022-12-17T05:08:05.721Z,12.18
2022-12-17T05:13:28.973Z,12.07
2022-12-17T05:18:50.400Z,12.17
2022-12-17T05:24:11.357Z,12.31
2022-12-17T05:29:31.821Z,12.04
2022-12-17T05:34:52.156Z,12.18
2022-12-17T05:40:12.957Z,12.14
2022-12-17T05:45:34.138Z,12.21
2022-12-17T05:50:54.597Z,12.14
2022-12-17T05:56:14.931Z,12.21
2022-12-17T06:01:35.793Z,12.14
2022-12-17T06:06:56.439Z,12.13
2022-12-17T06:12:17.153Z,12.21
2022-12-17T06:17:37.896Z,12.20
2022-12-17T06:22:58.873Z,12.20
2022-12-17T06:28:21.325Z,12.32
2022-12-17T06:33:42.236Z,12.23
2022-12-17T06:39:03.281Z,12.40
2022-12-17T06:44:24.181Z,12.22
2022-12-17T06:49:44.936Z,12.35
2022-12-17T06:55:05.892Z,12.30
2022-12-17T07:00:27.687Z,12.27
2022-12-17T07:06:05.082Z,12.38
2022-12-17T07:11:25.753Z,12.31
2022-12-17T07:16:46.639Z,12.37
2022-12-17T07:22:08.311Z,12.45
2022-12-17T07:27:28.857Z,12.50
2022-12-17T07:32:49.761Z,12.63
2022-12-17T07:38:18.369Z,12.73
2022-12-17T07:43:39.479Z,12.68
2022-12-17T07:49:00.363Z,12.78
2022-12-17T07:54:20.949Z,12.92
2022-12-17T07:59:42.244Z,13.00
2022-12-17T08:05:02.981Z,12.88
2022-12-17T08:10:24.390Z,13.11
2022-12-17T08:15:45.245Z,13.25
2022-12-17T08:21:06.055Z,13.13
2022-12-17T08:26:27.069Z,13.31
2022-12-17T08:31:47.741Z,13.21
2022-12-17T08:37:08.643Z,13.26
2022-12-17T08:42:29.290Z,13.45
2022-12-17T08:47:50.061Z,13.39
2022-12-17T08:53:21.709Z,13.53
2022-12-17T08:58:42.701Z,13.58
2022-12-17T09:04:04.980Z,13.44
2022-12-17T09:09:26.239Z,13.56
2022-12-17T09:14:46.749Z,13.51
2022-12-17T09:20:07.583Z,13.40
2022-12-17T09:25:28.474Z,13.52
2022-12-17T09:30:49.250Z,13.61
2022-12-17T09:36:10.047Z,13.64
2022-12-17T09:41:37.860Z,13.57
2022-12-17T09:47:14.433Z,13.77
2022-12-17T09:53:04.265Z,13.83
2022-12-17T09:58:25.654Z,13.83
2022-12-17T10:03:48.935Z,13.82
2022-12-17T10:09:14.883Z,13.91
2022-12-17T10:14:39.709Z,14.02
2022-12-17T10:20:01.844Z,14.05
2022-12-17T10:25:34.461Z,14.18
2022-12-17T10:30:56.181Z,14.13
2022-12-17T10:36:16.635Z,14.11
2022-12-17T10:41:40.879Z,14.15
2022-12-17T10:47:02.062Z,14.26
2022-12-17T10:52:37.784Z,14.36
2022-12-17T10:58:00.007Z,14.60
2022-12-17T11:03:21.620Z,14.65
2022-12-17T11:08:42.754Z,14.64
2022-12-17T11:14:05.871Z,14.71
2022-12-17T11:19:29.297Z,14.93
2022-12-17T11:24:59.217Z,14.97
2022-12-17T11:30:20.054Z,14.78
2022-12-17T11:35:51.978Z,14.80
2022-12-17T11:41:20.117Z,14.76
2022-12-17T11:46:53.080Z,14.76
2022-12-17T11:52:34.600Z,14.82
2022-12-17T11:58:07.206Z,14.83
2022-12-17T12:03:40.124Z,14.82
2022-12-17T12:09:20.265Z,14.71
2022-12-17T12:15:18.286Z,14.74
2022-12-17T12:20:53.814Z,14.77
2022-12-17T12:26:35.015Z,14.79
2022-12-17T12:32:09.842Z,14.95
2022-12-17T12:37:33.243Z,14.90
2022-12-17T12:43:26.434Z,14.99
2022-12-17T12:49:07.800Z,14.91
2022-12-17T12:54:44.186Z,14.94
2022-12-17T13:00:08.387Z,15.05
2022-12-17T13:05:44.362Z,15.04
2022-12-17T13:10:47.818Z,15.09
2022-12-17T13:15:55.689Z,15.08
2022-12-17T13:21:25.965Z,14.93
2022-12-17T13:26:43.824Z,14.91
2022-12-17T13:32:15.317Z,14.94
2022-12-17T13:37:57.476Z,14.85
2022-12-17T13:42:59.830Z,14.80
2022-12-17T13:48:02.165Z,14.68
2022-12-17T13:53:15.916Z,14.76
2022-12-17T13:58:23.886Z,14.71
2022-12-17T14:03:49.915Z,14.66
2022-12-17T14:08:50.745Z,14.73
2022-12-17T14:13:54.064Z,14.61
2022-12-17T14:18:58.688Z,14.71
2022-12-17T14:24:01.154Z,14.70
2022-12-17T14:29:13.782Z,14.73
2022-12-17T14:34:15.987Z,14.62
2022-12-17T14:39:20.535Z,14.68
2022-12-17T14:44:26.560Z,14.54
2022-12-17T14:49:29.044Z,14.76
2022-12-17T14:54:31.931Z,14.62
2022-12-17T14:59:38.758Z,14.74
2022-12-17T15:04:41.342Z,14.75
2022-12-17T15:09:44.709Z,14.63
2022-12-17T15:14:47.196Z,14.63
2022-12-17T15:19:55.764Z,14.55
2022-12-17T15:24:58.615Z,14.66
2022-12-17T15:30:00.994Z,14.56
2022-12-17T15:35:03.381Z,14.59
2022-12-17T15:40:07.181Z,14.52
2022-12-17T15:45:10.038Z,14.58
2022-12-17T15:50:13.228Z,14.37
2022-12-17T15:55:15.821Z,14.18
2022-12-17T16:00:18.898Z,14.36
2022-12-17T16:05:21.528Z,14.37
2022-12-17T16:10:23.915Z,14.28
2022-12-17T16:15:26.383Z,14.02
2022-12-17T16:20:28.817Z,14.00
2022-12-17T16:25:31.255Z,14.01
2022-12-17T16:30:33.530Z,13.87
2022-12-17T16:35:35.774Z,13.97
2022-12-17T16:40:38.026Z,13.84
2022-12-17T16:45:48.544Z,13.80
2022-12-17T16:50:51.685Z,13.76
2022-12-17T16:55:53.981Z,13.58
2022-12-17T17:00:56.200Z,13.73
2022-12-17T17:06:01.535Z,13.82
2022-12-17T17:11:26.763Z,13.85
2022-12-17T17:16:29.297Z,13.78
2022-12-17T17:21:36.944Z,13.71
2022-12-17T17:26:39.853Z,13.76
2022-12-17T17:37:04.435Z,13.83
2022-12-17T17:42:07.126Z,13.87
2022-12-17T17:47:09.414Z,13.77
2022-12-17T17:52:12.312Z,13.70
2022-12-17T17:57:15.041Z,13.70
2022-12-17T18:02:17.364Z,13.47
2022-12-17T18:07:27.728Z,13.67
2022-12-17T18:12:49.100Z,13.56
2022-12-17T18:17:52.414Z,13.52
2022-12-17T18:22:54.685Z,13.62
2022-12-17T18:27:56.979Z,13.49
2022-12-17T18:32:59.180Z,13.48
2022-12-17T18:38:02.150Z,13.55
2022-12-17T18:43:23.311Z,13.45
2022-12-17T18:48:25.627Z,13.45
2022-12-17T18:53:27.965Z,13.43
2022-12-17T18:58:30.207Z,13.30
2022-12-17T19:03:33.132Z,13.38
2022-12-17T19:08:36.153Z,13.21
2022-12-17T19:13:39.194Z,13.34
2022-12-17T19:18:41.922Z,13.32
2022-12-17T19:23:44.199Z,13.28
2022-12-17T19:28:49.882Z,13.24
2022-12-17T19:34:00.002Z,13.32
2022-12-17T19:39:05.320Z,13.35
2022-12-17T19:44:12.953Z,13.52
2022-12-17T19:49:16.241Z,13.39
2022-12-17T19:54:18.591Z,13.60
2022-12-17T19:59:20.792Z,13.61
2022-12-17T20:04:23.279Z,13.58
2022-12-17T20:09:25.577Z,13.58
2022-12-17T20:14:28.828Z,13.64
2022-12-17T20:19:33.087Z,13.70
2022-12-17T20:24:35.627Z,13.61
2022-12-17T20:29:37.986Z,13.69
2022-12-17T20:34:40.255Z,13.74
2022-12-17T20:45:02.403Z,13.65
2022-12-17T20:50:04.986Z,13.74
2022-12-17T20:55:07.618Z,13.79
2022-12-17T21:00:10.857Z,13.88
2022-12-17T21:05:13.169Z,13.91
2022-12-17T21:10:15.536Z,13.93
2022-12-17T21:15:17.971Z,13.72
2022-12-17T21:20:20.592Z,13.70
2022-12-17T21:25:23.488Z,13.86
2022-12-17T21:30:25.952Z,13.59
2022-12-17T21:35:28.334Z,13.80
2022-12-17T21:40:30.827Z,13.87
2022-12-17T21:45:41.460Z,13.84
2022-12-17T21:50:45.174Z,13.78
2022-12-17T21:55:48.663Z,13.77
2022-12-17T22:00:51.264Z,13.68
2022-12-17T22:05:53.489Z,13.83
2022-12-17T22:10:55.989Z,13.71
2022-12-17T22:15:58.326Z,13.71
2022-12-17T22:21:01.620Z,13.86
2022-12-17T22:26:10.076Z,13.83
2022-12-17T22:31:31.920Z,13.70
2022-12-17T22:38:39.383Z,13.78
2022-12-17T22:44:38.490Z,13.78
2022-12-17T22:47:38.282Z,13.83
2022-12-17T22:52:40.627Z,13.91
2022-12-17T22:57:43.421Z,13.94
2022-12-17T23:02:45.833Z,13.73
2022-12-17T23:07:48.516Z,13.80
2022-12-17T23:12:51.803Z,13.91
2022-12-17T23:17:56.193Z,13.88
2022-12-17T23:22:58.743Z,13.86
2022-12-17T23:28:01.275Z,13.87
2022-12-17T23:33:03.710Z,13.78
2022-12-17T23:38:06.755Z,13.64
2022-12-17T23:43:13.008Z,13.77
2022-12-17T23:48:19.560Z,13.71
2022-12-17T23:53:21.790Z,13.82
2022-12-17T23:58:24.157Z,13.71
